Time;durP1;ratioP1;P1;durP2;ratioP2;P2;SDS_P1;SDS_P2;PMS_P1;PMS_P2;Temp;Humidity;BMP_temperature;BMP_pressure;BME280_temperature;BME280_humidity;BME280_pressure;Samples;Min_cycle;Max_cycle;Signal;HPM_P1;HPM_P2
2022/07/12 00:00:17;;;;;;;0.90;0.50;;;13.50;1.40;;;15.03;100.00;96005.72;646395;216;31494;-76
2022/07/12 00:02:59;;;;;;;2.00;0.80;;;13.60;1.40;;;15.12;100.00;96002.47;645634;216;31738;-76
2022/07/12 00:05:41;;;;;;;1.12;0.65;;;13.70;1.40;;;14.96;100.00;95996.80;647337;216;31480;-75
2022/07/12 00:08:26;;;;;;;1.40;1.00;;;13.70;1.40;;;15.03;100.00;95995.39;647714;212;31542;-76
2022/07/12 00:11:07;;;;;;;0.68;0.50;;;13.80;1.40;;;15.14;100.00;95996.50;646273;216;31760;-76
2022/07/12 00:13:49;;;;;;;1.00;0.90;;;13.90;1.40;;;15.15;100.00;95998.54;647601;216;31540;-76
2022/07/12 00:16:31;;;;;;;1.80;0.60;;;13.80;1.40;;;15.23;100.00;96003.55;619021;226;31849;-76
2022/07/12 00:19:13;;;;;;;1.00;0.70;;;13.80;1.40;;;15.12;100.00;95999.97;646271;216;31515;-75
2022/07/12 00:21:54;;;;;;;0.70;0.60;;;13.70;1.40;;;15.00;100.00;96002.66;618536;226;32445;-76
2022/07/12 00:24:36;;;;;;;1.00;0.60;;;13.60;1.40;;;14.93;100.00;96002.53;616041;227;31867;-76
2022/07/12 00:27:18;;;;;;;0.73;0.73;;;13.50;1.40;;;14.93;100.00;96001.31;647252;216;31500;-76
2022/07/12 00:30:00;;;;;;;4.93;1.10;;;13.50;1.40;;;15.11;100.00;95999.29;647937;212;31571;-78
2022/07/12 00:32:43;;;;;;;1.15;0.60;;;13.70;1.40;;;15.18;100.00;95999.55;646940;216;31509;-76
2022/07/12 00:35:51;;;;;;;1.10;0.60;;;13.70;1.40;;;15.26;100.00;96003.20;647409;216;31956;-76
2022/07/12 00:38:33;;;;;;;2.22;1.10;;;13.80;1.40;;;15.37;100.00;96006.63;645495;216;32084;-75
2022/07/12 00:41:15;;;;;;;0.50;0.50;;;13.80;1.40;;;15.34;100.00;96007.06;647175;212;31661;-75
2022/07/12 00:43:58;;;;;;;2.20;0.98;;;13.90;1.40;;;15.39;100.00;96006.91;645617;216;31553;-75
2022/07/12 00:46:40;;;;;;;1.00;0.80;;;13.80;1.40;;;15.43;100.00;96010.28;646695;216;33495;-75
2022/07/12 00:49:25;;;;;;;0.80;0.80;;;13.80;1.40;;;15.40;100.00;96011.08;645634;212;31555;-76
2022/07/12 00:52:07;;;;;;;1.20;1.10;;;13.80;1.40;;;15.24;100.00;96007.02;646714;216;31494;-76
2022/07/12 00:54:52;;;;;;;0.52;0.50;;;13.70;1.40;;;15.11;100.00;96001.19;647636;216;31626;-76
2022/07/12 00:57:34;;;;;;;1.12;0.62;;;13.50;1.40;;;15.11;100.00;96001.14;646882;216;31586;-76
2022/07/12 01:00:21;;;;;;;2.70;0.98;;;13.50;1.40;;;15.09;100.00;96003.06;646480;212;31508;-75
2022/07/12 01:03:03;;;;;;;0.52;0.50;;;13.40;1.40;;;14.99;100.00;96006.54;646332;216;31597;-75
2022/07/12 01:05:47;;;;;;;1.00;0.70;;;13.40;1.40;;;14.78;100.00;96006.23;646520;216;31632;-75
2022/07/12 01:08:32;;;;;;;1.10;0.80;;;13.20;1.40;;;14.73;100.00;96005.66;630956;221;31666;-75
2022/07/12 01:11:14;;;;;;;0.60;0.50;;;13.10;1.40;;;14.60;100.00;96005.56;647078;216;31611;-75
2022/07/12 01:13:58;;;;;;;0.98;0.73;;;13.00;1.40;;;14.46;100.00;96005.83;647339;216;31505;-76
2022/07/12 01:16:40;;;;;;;1.42;0.90;;;12.80;1.40;;;14.33;100.00;96002.52;646471;216;31528;-75
2022/07/12 01:19:22;;;;;;;0.82;0.50;;;12.90;1.40;;;14.25;100.00;96002.08;645932;212;42326;-76
2022/07/12 01:24:38;;;;;;;1.60;0.80;;;12.60;1.40;;;14.01;100.00;95999.06;641257;217;31470;-76
2022/07/12 01:27:19;;;;;;;0.80;0.70;;;12.50;1.40;;;13.88;100.00;95995.42;647316;216;42113;-75
2022/07/12 01:30:03;;;;;;;0.85;0.85;;;12.40;1.40;;;13.76;100.00;96000.20;646972;216;42130;-76
2022/07/12 01:32:44;;;;;;;1.10;0.62;;;12.30;1.40;;;13.64;100.00;95998.36;646706;216;42114;-75
2022/07/12 01:35:51;;;;;;;0.68;0.55;;;12.20;1.40;;;13.50;100.00;96000.42;646353;212;31497;-74
2022/07/12 01:38:33;;;;;;;0.67;0.47;;;12.10;1.40;;;13.41;100.00;96001.13;645520;215;31681;-75
2022/07/12 01:41:14;;;;;;;0.82;0.73;;;12.00;1.40;;;13.43;100.00;95997.97;647249;216;31521;-74
2022/07/12 01:43:56;;;;;;;0.80;0.70;;;11.90;1.40;;;13.46;100.00;95997.96;647658;216;42715;-75
2022/07/12 01:46:38;;;;;;;1.10;0.80;;;12.00;1.40;;;13.50;100.00;95995.80;646534;216;38590;-75
2022/07/12 01:49:19;;;;;;;1.00;0.90;;;12.20;1.40;;;13.46;100.00;95997.52;646649;216;31829;-75
2022/07/12 01:52:01;;;;;;;3.60;0.70;;;12.10;1.40;;;13.47;100.00;96001.42;647011;216;31709;-75
2022/07/12 01:54:44;;;;;;;1.17;0.80;;;12.10;1.40;;;13.57;100.00;95998.62;646686;212;32294;-76
2022/07/12 01:57:25;;;;;;;1.10;0.95;;;12.10;1.40;;;13.50;100.00;96000.32;646458;216;36037;-76
2022/07/12 02:00:08;;;;;;;1.30;0.70;;;12.00;1.40;;;13.35;100.00;95998.84;647010;216;31499;-77
2022/07/12 02:02:50;;;;;;;0.80;0.60;;;11.80;1.40;;;13.17;100.00;95996.00;646407;216;31492;-76
2022/07/12 02:05:31;;;;;;;0.88;0.77;;;11.70;1.40;;;13.10;100.00;95992.07;646897;216;41310;-75
2022/07/12 02:08:13;;;;;;;0.65;0.50;;;11.60;1.40;;;13.12;100.00;95991.59;647412;212;32241;-75
2022/07/12 02:10:58;;;;;;;12.90;0.90;;;11.50;1.40;;;12.95;100.00;95995.00;618589;222;42593;-75
2022/07/12 02:13:40;;;;;;;1.10;0.90;;;11.40;1.40;;;12.97;100.00;95994.95;646627;213;34178;-76
2022/07/12 02:16:21;;;;;;;2.10;1.40;;;11.40;1.40;;;12.83;100.00;95992.81;645412;216;31505;-75
2022/07/12 02:19:03;;;;;;;3.20;0.77;;;11.30;1.40;;;12.73;100.00;95988.44;647159;216;34176;-75
2022/07/12 02:21:45;;;;;;;1.20;0.60;;;11.30;1.40;;;12.89;100.00;95988.88;646017;216;42246;-75
2022/07/12 02:24:26;;;;;;;1.30;0.60;;;11.40;1.40;;;12.88;100.00;95986.23;644970;216;32007;-75
2022/07/12 02:27:11;;;;;;;0.93;0.50;;;11.50;1.40;;;12.78;100.00;95987.34;646981;216;31524;-76
2022/07/12 02:29:53;;;;;;;0.73;0.60;;;11.40;1.40;;;12.70;100.00;95990.73;647632;216;31520;-75
2022/07/12 02:32:34;;;;;;;1.40;0.80;;;11.30;1.40;;;12.63;100.00;95988.83;646982;216;31746;-75
2022/07/12 02:35:54;;;;;;;0.70;0.60;;;11.10;1.40;;;12.46;100.00;95987.56;646796;216;31536;-75
2022/07/12 02:38:36;;;;;;;0.87;0.70;;;11.00;1.40;;;12.50;100.00;95989.16;646920;216;31560;-76
2022/07/12 02:43:55;;;;;;;1.00;0.80;;;10.90;1.40;;;12.37;100.00;95992.39;646356;212;32453;-75
2022/07/12 02:46:36;;;;;;;1.00;0.60;;;10.90;1.40;;;12.33;100.00;95992.58;646970;212;32197;-76
2022/07/12 02:49:18;;;;;;;0.60;0.60;;;10.90;1.40;;;12.30;100.00;95992.75;646545;216;31625;-77
2022/07/12 02:52:00;;;;;;;1.30;0.60;;;10.90;1.40;;;12.33;100.00;95993.67;645521;216;31595;-76
2022/07/12 02:54:42;;;;;;;0.80;0.43;;;10.90;1.40;;;12.33;100.00;95990.63;646360;216;42138;-74
2022/07/12 02:57:27;;;;;;;1.40;0.80;;;10.90;1.40;;;12.30;100.00;95990.23;647752;216;31469;-81
2022/07/12 03:00:13;;;;;;;1.00;0.80;;;10.90;1.40;;;12.40;100.00;95990.27;646596;212;31623;-75
2022/07/12 03:02:54;;;;;;;0.93;0.73;;;11.00;1.40;;;12.30;100.00;95991.55;646809;216;32783;-75
2022/07/12 03:05:36;;;;;;;1.93;0.80;;;10.90;1.40;;;12.20;100.00;95991.56;646522;212;31676;-75
2022/07/12 03:08:18;;;;;;;0.70;0.60;;;10.80;1.40;;;12.15;100.00;95997.73;647007;216;31783;-76
2022/07/12 03:10:59;;;;;;;2.10;1.00;;;10.80;1.40;;;12.17;100.00;95999.39;646402;212;31492;-76
2022/07/12 03:13:41;;;;;;;1.90;1.27;;;10.80;1.40;;;12.13;100.00;95994.73;646667;216;31541;-75
2022/07/12 03:16:26;;;;;;;1.60;0.73;;;10.70;1.40;;;12.13;100.00;95996.03;647879;216;42944;-75
2022/07/12 03:19:08;;;;;;;1.20;0.85;;;10.60;1.40;;;12.08;100.00;95999.20;646021;216;33728;-75
2022/07/12 03:21:49;;;;;;;1.00;0.90;;;10.60;1.40;;;12.02;100.00;95998.11;646574;216;31537;-75
2022/07/12 03:24:34;;;;;;;4.00;1.30;;;10.60;1.40;;;11.98;100.00;96000.58;647036;216;31545;-75
2022/07/12 03:29:50;;;;;;;1.30;0.83;;;10.50;1.40;;;11.97;100.00;95997.61;618813;222;31857;-75
2022/07/12 03:32:32;;;;;;;1.10;1.00;;;10.50;1.40;;;11.99;100.00;95995.95;646276;216;31952;-75
2022/07/12 03:35:54;;;;;;;1.70;1.50;;;10.50;1.40;;;12.00;100.00;96003.09;617911;222;31954;-75
2022/07/12 03:38:36;;;;;;;0.80;0.80;;;10.60;1.40;;;12.06;100.00;96001.14;647538;216;31516;-75
2022/07/12 03:41:17;;;;;;;2.03;1.20;;;10.70;1.40;;;12.06;100.00;96006.26;617431;226;32910;-76
2022/07/12 03:43:59;;;;;;;0.90;0.90;;;10.70;1.40;;;12.03;100.00;96006.74;647121;215;31519;-75
2022/07/12 03:46:44;;;;;;;1.80;1.07;;;10.60;1.40;;;12.04;100.00;96009.59;647094;216;31541;-75
2022/07/12 03:49:25;;;;;;;1.10;1.03;;;10.60;1.40;;;12.06;100.00;96007.66;647239;216;31513;-75
2022/07/12 03:52:07;;;;;;;3.30;1.50;;;10.70;1.40;;;12.06;100.00;96010.65;646802;212;39067;-75
2022/07/12 03:54:52;;;;;;;1.30;1.20;;;10.70;1.40;;;12.11;100.00;96012.16;647236;216;32280;-75
2022/07/12 03:57:34;;;;;;;1.08;0.73;;;10.70;1.40;;;12.15;100.00;96015.03;647167;216;31947;-76
2022/07/12 04:00:16;;;;;;;1.10;0.90;;;10.70;1.40;;;12.14;100.00;96015.10;647013;216;31709;-75
2022/07/12 04:02:57;;;;;;;0.40;0.30;;;10.70;1.40;;;12.12;100.00;96018.23;646268;212;31496;-76
2022/07/12 04:05:39;;;;;;;1.00;0.80;;;10.70;1.40;;;12.14;100.00;96022.11;646064;216;31559;-76
2022/07/12 04:08:21;;;;;;;0.80;0.50;;;10.70;1.40;;;12.23;100.00;96021.45;646791;216;31571;-76
2022/07/12 04:11:02;;;;;;;1.00;0.60;;;10.70;1.40;;;12.24;100.00;96024.16;646503;216;31529;-76
2022/07/12 04:13:44;;;;;;;1.03;0.90;;;10.70;1.40;;;12.22;100.00;96019.67;646248;212;32127;-76
2022/07/12 04:16:26;;;;;;;1.25;0.50;;;10.80;1.40;;;12.23;100.00;96020.14;618853;226;32049;-76
2022/07/12 04:19:09;;;;;;;1.00;0.60;;;10.80;1.40;;;12.26;100.00;96023.08;646658;212;42139;-76
2022/07/12 04:21:49;;;;;;;1.27;1.00;;;10.80;1.40;;;12.33;100.00;96025.44;647105;212;31496;-76
2022/07/12 04:24:31;;;;;;;1.10;0.70;;;10.90;1.40;;;12.39;100.00;96021.22;644936;216;32256;-76
2022/07/12 04:27:13;;;;;;;0.83;0.57;;;10.90;1.40;;;12.43;100.00;96020.66;647566;216;31598;-75
2022/07/12 04:29:55;;;;;;;0.90;0.70;;;11.00;1.40;;;12.45;100.00;96024.27;646136;216;31718;-75
2022/07/12 04:32:36;;;;;;;1.10;0.80;;;11.00;1.40;;;12.53;100.00;96024.84;647515;212;31681;-77
2022/07/12 04:35:52;;;;;;;0.90;0.90;;;11.10;1.40;;;12.74;100.00;96025.69;647076;216;31549;-76
2022/07/12 04:38:34;;;;;;;1.10;0.75;;;11.30;1.40;;;12.83;100.00;96027.97;646441;216;32262;-77
2022/07/12 04:41:16;;;;;;;1.40;1.30;;;11.40;1.40;;;12.89;100.00;96024.20;645897;212;31864;-76
2022/07/12 04:43:57;;;;;;;3.37;1.20;;;11.50;1.40;;;13.02;100.00;96025.02;645141;216;31748;-76
2022/07/12 04:46:42;;;;;;;1.20;0.83;;;11.70;1.40;;;13.19;100.00;96020.59;646030;212;31502;-77
2022/07/12 04:49:24;;;;;;;2.28;1.50;;;11.90;1.40;;;13.39;100.00;96020.84;646651;212;31488;-76
2022/07/12 04:52:09;;;;;;;1.40;1.30;;;12.10;1.40;;;13.55;100.00;96016.05;646311;216;32971;-76
2022/07/12 04:54:50;;;;;;;1.85;1.20;;;12.30;1.40;;;13.71;100.00;96022.34;645959;212;32938;-77
2022/07/12 04:57:32;;;;;;;0.70;0.60;;;12.50;1.40;;;13.84;100.00;96027.00;620071;222;42862;-76
2022/07/12 05:00:15;;;;;;;1.33;0.90;;;12.60;1.40;;;13.98;100.00;96026.67;618426;226;31850;-76
2022/07/12 05:02:59;;;;;;;8.60;1.23;;;12.80;1.40;;;14.10;100.00;96028.59;646821;212;31684;-76
2022/07/12 05:07:26;;;;;;;1.85;1.58;;;12.90;1.40;;;14.34;100.00;96030.99;647670;216;31568;-76
2022/07/12 05:10:08;;;;;;;1.40;0.93;;;13.10;1.40;;;14.42;100.00;96033.45;646540;216;31591;-78
2022/07/12 05:12:50;;;;;;;3.00;1.10;;;13.10;1.40;;;14.50;100.00;96037.91;645362;212;34101;-76
2022/07/12 05:15:31;;;;;;;1.25;1.15;;;13.10;1.40;;;14.64;100.00;96044.09;645057;212;31571;-77
2022/07/12 05:18:16;;;;;;;1.10;0.90;;;13.20;1.40;;;14.78;100.00;96044.86;619986;226;32478;-76
2022/07/12 05:20:58;;;;;;;1.52;1.42;;;13.40;1.40;;;14.90;100.00;96047.79;646404;212;31786;-76
2022/07/12 05:23:39;;;;;;;2.33;1.37;;;13.40;1.40;;;14.94;100.00;96046.09;645869;216;41294;-76
2022/07/12 05:26:21;;;;;;;1.30;1.02;;;13.50;1.40;;;15.03;100.00;96049.80;619614;225;31866;-76
2022/07/12 05:29:04;;;;;;;1.75;1.10;;;13.50;1.40;;;15.10;100.00;96052.17;645935;216;31620;-76
2022/07/12 05:31:46;;;;;;;1.12;0.95;;;13.60;1.40;;;15.10;100.00;96050.05;645573;216;42785;-76
2022/07/12 05:35:52;;;;;;;1.33;0.90;;;13.60;1.40;;;15.15;100.00;96051.70;648135;212;31577;-77
2022/07/12 05:38:34;;;;;;;2.20;1.40;;;13.60;1.40;;;15.14;100.00;96049.55;646214;214;31531;-76
2022/07/12 05:41:15;;;;;;;1.70;1.40;;;13.60;1.40;;;15.19;100.00;96050.94;646740;216;31556;-76
2022/07/12 05:44:00;;;;;;;1.70;1.20;;;13.60;1.40;;;15.28;100.00;96057.67;645096;216;31570;-76
2022/07/12 05:46:41;;;;;;;1.30;1.10;;;13.70;1.40;;;15.43;100.00;96060.73;646284;212;31547;-76
2022/07/12 05:49:26;;;;;;;1.10;0.80;;;13.90;1.40;;;15.61;100.00;96065.80;646954;216;31627;-76
2022/07/12 05:54:55;;;;;;;1.60;1.15;;;14.20;1.40;;;15.78;100.00;96072.92;646583;213;31567;-77
2022/07/12 05:57:37;;;;;;;1.55;1.33;;;14.40;1.40;;;15.92;100.00;96077.36;645901;216;31565;-76
2022/07/12 06:00:19;;;;;;;1.50;1.10;;;14.40;1.40;;;16.08;100.00;96081.32;645779;216;31591;-76
2022/07/12 06:03:02;;;;;;;1.60;1.15;;;14.50;1.40;;;16.15;100.00;96088.45;646685;216;31496;-76
2022/07/12 06:05:50;;;;;;;1.92;1.50;;;14.60;1.40;;;16.17;100.00;96087.14;646310;216;31612;-76
2022/07/12 06:08:38;;;;;;;1.42;1.33;;;14.70;1.40;;;16.28;100.00;96090.25;619284;222;32161;-75
2022/07/12 06:11:25;;;;;;;1.23;1.10;;;14.80;1.40;;;16.23;100.00;96085.48;645955;216;31576;-76
2022/07/12 06:14:14;;;;;;;2.03;1.40;;;14.90;1.40;;;16.40;100.00;96085.77;646722;216;31514;-74
2022/07/12 06:16:56;;;;;;;2.95;1.70;;;15.00;1.40;;;16.56;100.00;96084.03;618919;226;32221;-75
2022/07/12 06:19:38;;;;;;;2.05;1.10;;;15.10;1.40;;;16.54;100.00;96092.32;647051;212;31525;-76
2022/07/12 06:22:21;;;;;;;1.70;1.12;;;15.10;1.40;;;16.63;100.00;96093.50;646970;216;31561;-75
2022/07/12 06:25:01;;;;;;;1.58;1.15;;;15.20;1.40;;;16.78;100.00;96090.02;646550;212;31537;-75
2022/07/12 06:27:43;;;;;;;2.28;1.12;;;15.40;1.40;;;16.88;100.00;96093.96;646015;215;31567;-75
2022/07/12 06:30:24;;;;;;;2.40;1.20;;;15.40;1.40;;;16.95;100.00;96089.19;618185;222;32071;-75
2022/07/12 06:35:51;;;;;;;1.33;1.00;;;15.70;1.40;;;17.23;100.00;96097.00;646793;212;31800;-73
2022/07/12 06:38:32;;;;;;;1.10;0.90;;;16.00;1.40;;;17.52;100.00;96093.86;618431;226;31924;-76
2022/07/12 06:41:16;;;;;;;1.20;0.80;;;16.20;1.40;;;17.71;100.00;96090.91;646603;212;31512;-75
2022/07/12 06:46:38;;;;;;;1.10;0.85;;;16.40;1.40;;;17.81;100.00;96096.81;647013;216;31485;-76
2022/07/12 06:49:26;;;;;;;0.90;0.70;;;16.50;1.40;;;18.04;100.00;96095.55;646658;212;32091;-75
2022/07/12 06:52:16;;;;;;;1.50;0.70;;;16.60;1.40;;;17.82;100.00;96096.34;647548;216;31848;-75
2022/07/12 06:55:00;;;;;;;0.98;0.60;;;16.50;1.40;;;18.10;100.00;96098.37;646052;216;31574;-75
2022/07/12 06:57:42;;;;;;;0.77;0.60;;;16.70;1.40;;;18.30;100.00;96093.88;647529;216;31495;-75
2022/07/12 07:00:23;;;;;;;1.27;0.75;;;16.80;1.40;;;18.26;100.00;96093.17;646601;216;31480;-75
2022/07/12 07:03:08;;;;;;;0.90;0.70;;;16.90;1.40;;;18.39;100.00;96099.22;646455;216;31479;-77
2022/07/12 07:05:53;;;;;;;1.00;0.70;;;17.00;1.40;;;18.49;100.00;96097.34;618268;222;32145;-77
2022/07/12 07:08:35;;;;;;;2.10;0.80;;;17.00;1.40;;;18.53;100.00;96100.02;647484;216;31509;-76
2022/07/12 07:11:16;;;;;;;0.60;0.60;;;17.10;1.40;;;18.71;100.00;96102.47;646593;212;31497;-76
2022/07/12 07:14:04;;;;;;;1.00;0.90;;;17.30;1.40;;;18.73;100.00;96108.22;619034;222;32188;-75
2022/07/12 07:16:54;;;;;;;0.93;0.60;;;17.30;1.40;;;18.82;100.00;96105.16;640613;215;31431;-76
2022/07/12 07:19:41;;;;;;;1.30;0.73;;;17.20;1.40;;;18.87;100.00;96104.63;645823;216;31573;-75
2022/07/12 07:22:23;;;;;;;1.00;0.60;;;17.20;1.40;;;18.95;100.00;96106.03;618918;222;31907;-76
2022/07/12 07:25:05;;;;;;;1.50;0.60;;;17.50;1.40;;;19.11;100.00;96105.84;645371;216;31493;-75
2022/07/12 07:32:16;;;;;;;1.60;0.80;;;17.70;1.40;;;19.21;100.00;96109.72;619533;226;31997;-77
2022/07/12 07:35:53;;;;;;;1.70;0.60;;;17.90;1.40;;;19.38;100.00;96109.44;645786;215;31556;-75
2022/07/12 07:38:35;;;;;;;0.70;0.40;;;18.10;1.40;;;19.62;100.00;96109.72;619841;222;32402;-75
2022/07/12 07:41:17;;;;;;;1.08;0.80;;;18.40;1.40;;;19.71;100.00;96109.69;646743;216;31784;-74
2022/07/12 07:43:58;;;;;;;1.37;0.75;;;18.40;1.40;;;19.62;100.00;96113.39;645989;216;31476;-75
2022/07/12 07:46:40;;;;;;;0.90;0.73;;;18.40;1.40;;;19.66;100.00;96113.71;615609;226;31983;-75
2022/07/12 07:49:22;;;;;;;0.60;0.50;;;18.40;1.40;;;20.04;100.00;96115.87;644978;215;31528;-75
2022/07/12 07:52:05;;;;;;;1.98;0.70;;;18.70;1.40;;;20.31;100.00;96112.80;646242;216;31480;-76
2022/07/12 07:54:47;;;;;;;1.42;0.70;;;19.00;1.40;;;20.60;100.00;96115.30;634817;212;31633;-76
2022/07/12 07:57:35;;;;;;;1.20;0.95;;;19.30;1.40;;;20.74;100.00;96109.95;646686;216;31583;-75
2022/07/12 08:00:16;;;;;;;1.08;0.70;;;19.30;1.40;;;20.80;100.00;96111.83;646442;216;31891;-75
2022/07/12 08:03:02;;;;;;;0.80;0.70;;;19.30;1.40;;;20.98;100.00;96115.74;618448;226;31964;-75
2022/07/12 08:05:45;;;;;;;4.00;0.90;;;19.50;1.40;;;20.87;100.00;96116.30;646434;216;31473;-77
2022/07/12 08:08:30;;;;;;;1.00;0.62;;;19.40;1.40;;;21.20;100.00;96112.61;620034;226;42502;-75
2022/07/12 08:11:17;;;;;;;0.68;0.52;;;19.70;1.40;;;21.78;100.00;96110.19;646773;216;42656;-74
2022/07/12 08:13:59;;;;;;;1.00;0.65;;;20.20;1.40;;;22.09;100.00;96107.45;647117;212;33171;-75
2022/07/12 08:16:47;;;;;;;1.62;0.70;;;20.50;1.40;;;22.16;100.00;96106.39;647290;216;32075;-75
2022/07/12 08:19:34;;;;;;;1.10;0.82;;;20.50;1.40;;;22.23;100.00;96109.69;646105;216;31652;-75
2022/07/12 08:22:22;;;;;;;1.00;0.80;;;20.70;1.40;;;22.38;99.76;96112.19;645503;212;31475;-76
2022/07/12 08:25:04;;;;;;;0.80;0.63;;;20.10;1.40;;;21.86;99.56;96113.16;646481;212;42142;-76
2022/07/12 08:27:52;;;;;;;0.85;0.60;;;20.00;1.40;;;22.12;100.00;96102.73;646506;216;31598;-76
2022/07/12 08:30:34;;;;;;;1.60;0.80;;;20.50;1.40;;;22.48;96.10;96107.89;646043;216;31541;-74
2022/07/12 08:35:52;;;;;;;1.02;0.77;;;20.70;1.40;;;22.67;97.00;96119.31;645246;216;31789;-75
2022/07/12 08:38:44;;;;;;;1.00;0.70;;;20.90;1.40;;;22.15;91.28;96124.13;646821;216;31552;-76
2022/07/12 08:44:08;;;;;;;0.70;0.70;;;20.00;1.40;;;22.26;93.81;96121.98;618288;226;31831;-76
2022/07/12 08:46:50;;;;;;;1.12;0.80;;;21.00;1.40;;;22.53;88.55;96123.15;645331;212;31681;-75
2022/07/12 08:49:31;;;;;;;1.07;0.80;;;21.10;1.40;;;23.01;86.69;96126.23;646195;212;32134;-76
2022/07/12 08:55:01;;;;;;;1.23;0.90;;;21.10;1.40;;;22.61;82.88;96128.42;646658;212;31765;-76
2022/07/12 08:57:44;;;;;;;1.80;0.70;;;21.00;1.40;;;22.75;84.89;96132.13;631152;220;32369;-75
2022/07/12 09:00:29;;;;;;;1.20;0.75;;;21.00;1.40;;;22.89;84.91;96126.47;646026;213;42147;-75
2022/07/12 09:03:13;;;;;;;2.50;1.00;;;21.20;1.40;;;23.58;85.98;96131.77;647260;216;31569;-75
2022/07/12 09:05:53;;;;;;;1.00;0.75;;;22.10;1.40;;;23.82;81.43;96130.04;645164;216;32766;-75
2022/07/12 09:08:41;;;;;;;1.48;0.70;;;21.70;1.40;;;23.54;81.45;96125.50;619714;222;32409;-76
2022/07/12 09:11:22;;;;;;;0.80;0.60;;;22.10;1.40;;;24.11;80.76;96125.55;647423;212;31531;-76
2022/07/12 09:14:07;;;;;;;0.80;0.50;;;22.30;1.40;;;24.42;77.17;96127.59;646187;216;31807;-75
2022/07/12 09:17:12;;;;;;;1.60;0.60;;;22.90;1.40;;;24.88;75.83;96128.54;645179;216;32010;-75
2022/07/12 09:19:55;;;;;;;1.37;0.75;;;22.70;1.40;;;24.90;76.72;96128.72;644600;216;32117;-75
2022/07/12 09:22:52;;;;;;;1.00;0.70;;;22.90;1.40;;;26.34;75.90;96127.16;646720;216;32168;-76
2022/07/12 09:25:33;;;;;;;1.70;0.60;;;24.60;1.40;;;25.71;70.29;96129.92;646340;216;31493;-75
2022/07/12 09:28:14;;;;;;;1.10;0.80;;;23.10;1.40;;;25.75;73.31;96134.47;647456;212;31517;-77
2022/07/12 09:31:01;;;;;;;1.17;0.70;;;23.90;1.40;;;26.66;69.86;96133.34;645733;216;31487;-76
2022/07/12 09:38:52;;;;;;;1.97;0.70;;;25.80;1.40;;;27.43;67.14;96138.38;620501;226;32438;-76
2022/07/12 09:41:32;;;;;;;1.90;0.70;;;24.60;1.40;;;27.12;63.35;96139.60;646560;216;32083;-76
2022/07/12 09:44:13;;;;;;;1.50;1.05;;;23.70;1.40;;;26.14;64.51;96141.32;646682;212;32184;-76
2022/07/12 09:46:57;;;;;;;1.33;0.60;;;24.70;1.40;;;26.25;64.22;96146.19;646575;212;31574;-76
2022/07/12 09:49:41;;;;;;;1.10;0.68;;;23.50;1.40;;;27.27;64.88;96142.93;648171;216;31580;-77
2022/07/12 09:52:28;;;;;;;0.52;0.50;;;25.90;1.40;;;28.85;58.38;96141.23;642410;216;42339;-76
2022/07/12 09:55:18;;;;;;;0.75;0.60;;;28.10;1.40;;;29.30;54.08;96142.23;647173;216;31465;-75
2022/07/12 09:57:59;;;;;;;1.10;0.70;;;26.60;1.40;;;27.09;58.16;96142.62;652769;212;22466;-76
2022/07/12 10:00:40;;;;;;;1.35;0.70;;;24.10;1.40;;;26.06;62.12;96149.34;647344;216;32794;-76
2022/07/12 10:03:23;;;;;;;0.90;0.60;;;23.10;1.40;;;25.62;63.90;96153.26;645973;216;31581;-76
2022/07/12 10:06:06;;;;;;;1.40;0.70;;;22.80;1.40;;;24.63;67.31;96153.78;645345;216;31628;-75
2022/07/12 10:08:53;;;;;;;1.00;0.70;;;22.30;1.40;;;24.79;68.69;96159.20;647982;216;42637;-76
2022/07/12 10:11:41;;;;;;;1.17;0.80;;;22.60;1.40;;;25.23;66.16;96155.20;646043;216;31682;-75
2022/07/12 10:14:25;;;;;;;5.72;0.93;;;23.10;1.40;;;24.67;66.62;96158.02;647319;212;32530;-75
2022/07/12 10:17:09;;;;;;;0.90;0.90;;;22.50;1.40;;;25.48;67.55;96157.52;645803;212;31573;-75
2022/07/12 10:20:12;;;;;;;0.80;0.80;;;23.50;1.40;;;27.28;63.82;96150.13;646475;216;31566;-76
2022/07/12 10:22:55;;;;;;;0.77;0.68;;;26.10;1.40;;;27.14;63.14;96144.94;645477;212;31468;-76
2022/07/12 10:25:37;;;;;;;0.50;0.40;;;24.90;1.40;;;27.50;64.46;96141.12;647118;216;31561;-76
2022/07/12 10:28:21;;;;;;;0.70;0.65;;;24.50;1.40;;;28.00;61.66;96142.52;645895;216;31568;-76
2022/07/12 10:31:03;;;;;;;0.80;0.70;;;25.50;1.40;;;27.61;62.21;96151.08;645678;216;31539;-76
2022/07/12 10:36:00;;;;;;;0.80;0.80;;;23.70;1.40;;;27.92;62.90;96142.22;646379;216;31871;-76
2022/07/12 10:38:41;;;;;;;1.30;0.80;;;23.70;1.40;;;25.73;66.28;96149.23;645535;216;32081;-75
2022/07/12 10:41:29;;;;;;;3.50;0.90;;;23.10;1.40;;;26.18;65.29;96152.97;646586;216;31485;-76
2022/07/12 10:44:17;;;;;;;0.80;0.57;;;23.30;1.40;;;26.60;64.07;96143.28;647463;216;31498;-76
2022/07/12 10:47:04;;;;;;;2.08;0.80;;;24.50;1.40;;;27.06;62.04;96137.59;646041;212;31738;-76
2022/07/12 10:49:47;;;;;;;2.12;1.02;;;24.90;1.40;;;27.97;59.37;96135.88;646226;215;31477;-75
2022/07/12 10:52:28;;;;;;;0.70;0.62;;;24.90;1.40;;;27.61;60.37;96143.19;646397;216;31633;-76
2022/07/12 10:55:16;;;;;;;0.90;0.73;;;24.30;1.40;;;30.03;56.37;96132.16;646385;216;31580;-76
2022/07/12 10:57:59;;;;;;;1.30;0.80;;;28.20;1.40;;;30.55;57.88;96135.63;645642;212;31918;-76
2022/07/12 11:00:40;;;;;;;1.60;0.98;;;27.50;1.40;;;29.92;53.11;96143.41;647880;216;42128;-76
2022/07/12 11:03:22;;;;;;;1.35;0.98;;;25.70;1.40;;;31.32;50.50;96140.33;647128;212;31532;-76
2022/07/12 11:06:03;;;;;;;1.10;0.60;;;27.90;1.40;;;33.40;48.26;96128.43;646821;216;31589;-76
2022/07/12 11:09:03;;;;;;;1.00;0.90;;;27.90;1.40;;;31.74;54.25;96133.67;645946;212;31565;-75
2022/07/12 11:11:48;;;;;;;0.70;0.70;;;26.80;1.40;;;30.45;51.08;96144.80;646509;216;31490;-75
2022/07/12 11:14:30;;;;;;;3.33;0.70;;;25.60;1.40;;;27.48;56.31;96151.03;646956;212;32744;-76
2022/07/12 11:17:11;;;;;;;0.90;0.60;;;24.00;1.40;;;25.90;58.61;96154.67;646314;212;31746;-75
2022/07/12 11:19:53;;;;;;;1.10;0.50;;;23.50;1.40;;;27.59;58.63;96144.50;645918;216;42644;-76
2022/07/12 11:22:34;;;;;;;2.62;0.88;;;25.40;1.40;;;27.68;56.15;96145.48;645643;216;31474;-76
2022/07/12 11:25:16;;;;;;;0.60;0.55;;;26.10;1.40;;;29.37;51.81;96135.27;646642;216;31469;-75
2022/07/12 11:27:58;;;;;;;0.82;0.70;;;26.30;1.40;;;30.14;50.79;96133.74;646803;212;42097;-76
2022/07/12 11:30:39;;;;;;;0.70;0.40;;;27.50;1.40;;;32.26;48.73;96126.09;646111;212;31463;-76
2022/07/12 11:35:57;;;;;;;0.60;0.50;;;28.10;1.40;;;31.70;47.20;96121.59;646473;216;31602;-76
2022/07/12 11:38:39;;;;;;;0.75;0.60;;;28.50;1.40;;;33.28;44.70;96118.41;647085;216;31589;-76
2022/07/12 11:41:20;;;;;;;0.90;0.80;;;28.40;1.40;;;32.67;42.80;96118.16;620089;222;43475;-76
2022/07/12 11:44:04;;;;;;;0.60;0.60;;;27.30;1.40;;;33.63;46.25;96110.19;646619;212;31623;-76
2022/07/12 11:46:46;;;;;;;0.80;0.70;;;28.10;1.40;;;32.83;44.75;96111.52;645978;212;31482;-76
2022/07/12 11:49:27;;;;;;;0.60;0.50;;;28.40;1.40;;;29.96;46.76;96123.83;631383;222;31719;-78
2022/07/12 11:52:09;;;;;;;0.70;0.60;;;26.20;1.40;;;30.74;47.73;96116.94;646321;216;31785;-75
2022/07/12 11:54:57;;;;;;;1.80;0.60;;;28.30;1.40;;;31.61;42.78;96113.16;647005;216;42857;-76
2022/07/12 11:57:40;;;;;;;0.50;0.40;;;28.10;1.40;;;31.45;44.15;96115.11;646636;216;31532;-76
2022/07/12 12:00:25;;;;;;;1.67;0.80;;;27.80;1.40;;;32.60;43.48;96109.20;645617;216;42851;-76
2022/07/12 12:03:12;;;;;;;1.60;0.95;;;27.90;1.40;;;33.04;42.17;96102.44;646961;216;31563;-76
2022/07/12 12:06:00;;;;;;;1.30;0.88;;;28.40;1.40;;;32.26;42.22;96102.98;645415;216;31652;-74
2022/07/12 12:08:48;;;;;;;1.00;0.60;;;28.10;1.40;;;32.81;41.23;96101.69;645886;216;31920;-76
2022/07/12 12:11:35;;;;;;;0.90;0.60;;;27.90;1.40;;;33.02;40.87;96093.82;645985;216;31472;-74